UACC/TSE METAR and TAF weather

Enter ICAO airport designator
Station Type Date Time Source
UACC METAR 2019/06/26 16:00 UTC NOAA

UACC 261600Z 04008MPS CAVOK 22/16 Q1008 R04/0///70 NOSIG RMK QFE725/0966


Station Type Date Time Source
UACC Decoded METAR 2019/06/26 16:00 UTC NOAA

Astana, Kazakhstan (UACC) 51-12N 071-27E
Jun 26, 2019 - 12:00 PM EDT / 2019.06.26 1600 UTC
Wind: from the NE (040 degrees) at 18 MPH (16 KT):0
Visibility: greater than 7 mile(s):0
Temperature: 71 F (22 C)
Dew Point: 60 F (16 C)
Relative Humidity: 68%
Pressure (altimeter): 29.77 in. Hg (1008 hPa)
ob: UACC 261600Z 04008MPS CAVOK 22/16 Q1008 R04/0///70 NOSIG RMK QFE725/0966
cycle: 16

Station Type Date Time Source
UACC TAF 2019/06/26 15:00 UTC NOAA

TAF
AMD UACC 261459Z 2615/2712 02005MPS 9999 SCT030CB BKN100 TX28/2615Z TN17/2623Z
TEMPO 2618/2704 VRB15MPS 2500 TSRA SQ BKN030CB PROB40
TEMPO 2707/2712 VRB15MPS 3100 TSRA SQ BKN030CB

Example: see airport list